sensor_id;sensor_type;location;lat;lon;timestamp;temperature;humidity
40676;DHT22;26359;48.750;9.314;2023-04-25T00:02:18;9.40;99.90
40676;DHT22;26359;48.750;9.314;2023-04-25T00:04:44;9.30;99.90
40676;DHT22;26359;48.750;9.314;2023-04-25T00:07:10;9.30;99.90
40676;DHT22;26359;48.750;9.314;2023-04-25T00:09:35;9.30;99.90
40676;DHT22;26359;48.750;9.314;2023-04-25T00:12:01;9.30;99.90
40676;DHT22;26359;48.750;9.314;2023-04-25T00:14:27;9.30;99.90
40676;DHT22;26359;48.750;9.314;2023-04-25T00:16:53;9.30;99.90
40676;DHT22;26359;48.750;9.314;2023-04-25T00:19:19;9.20;99.90
40676;DHT22;26359;48.750;9.314;2023-04-25T00:21:45;9.30;99.90
40676;DHT22;26359;48.750;9.314;2023-04-25T00:24:11;9.40;99.90
40676;DHT22;26359;48.750;9.314;2023-04-25T00:26:37;9.40;99.90
40676;DHT22;26359;48.750;9.314;2023-04-25T00:29:03;9.40;99.90
40676;DHT22;26359;48.750;9.314;2023-04-25T00:31:28;9.40;99.90
40676;DHT22;26359;48.750;9.314;2023-04-25T00:33:54;9.40;99.90
40676;DHT22;26359;48.750;9.314;2023-04-25T00:36:20;9.40;99.90
40676;DHT22;26359;48.750;9.314;2023-04-25T00:38:45;9.40;99.90
40676;DHT22;26359;48.750;9.314;2023-04-25T00:41:11;9.30;99.90
40676;DHT22;26359;48.750;9.314;2023-04-25T00:43:37;9.40;99.90
40676;DHT22;26359;48.750;9.314;2023-04-25T00:46:03;9.40;99.90
40676;DHT22;26359;48.750;9.314;2023-04-25T00:48:28;9.30;99.90
40676;DHT22;26359;48.750;9.314;2023-04-25T00:50:57;9.40;99.90
40676;DHT22;26359;48.750;9.314;2023-04-25T00:53:24;9.40;99.90
40676;DHT22;26359;48.750;9.314;2023-04-25T00:55:50;9.30;99.90
40676;DHT22;26359;48.750;9.314;2023-04-25T00:58:20;9.30;99.90
40676;DHT22;26359;48.750;9.314;2023-04-25T01:00:47;9.40;99.90
40676;DHT22;26359;48.750;9.314;2023-04-25T01:03:14;9.30;99.90
40676;DHT22;26359;48.750;9.314;2023-04-25T01:05:42;9.30;99.90
40676;DHT22;26359;48.750;9.314;2023-04-25T01:08:07;9.30;99.90
40676;DHT22;26359;48.750;9.314;2023-04-25T01:10:33;9.30;99.90
40676;DHT22;26359;48.750;9.314;2023-04-25T01:12:59;9.30;99.90
40676;DHT22;26359;48.750;9.314;2023-04-25T01:15:25;9.30;99.90
40676;DHT22;26359;48.750;9.314;2023-04-25T01:17:50;9.40;99.90
40676;DHT22;26359;48.750;9.314;2023-04-25T01:20:16;9.40;99.90
40676;DHT22;26359;48.750;9.314;2023-04-25T01:22:42;9.40;99.90
40676;DHT22;26359;48.750;9.314;2023-04-25T01:25:08;9.40;99.90
40676;DHT22;26359;48.750;9.314;2023-04-25T01:27:36;9.40;99.90
40676;DHT22;26359;48.750;9.314;2023-04-25T01:30:02;9.40;99.90
40676;DHT22;26359;48.750;9.314;2023-04-25T01:32:29;9.30;99.90
40676;DHT22;26359;48.750;9.314;2023-04-25T01:34:57;9.30;99.90
40676;DHT22;26359;48.750;9.314;2023-04-25T01:37:22;9.30;99.90
40676;DHT22;26359;48.750;9.314;2023-04-25T01:39:48;9.30;99.90
40676;DHT22;26359;48.750;9.314;2023-04-25T01:42:15;9.30;99.90
40676;DHT22;26359;48.750;9.314;2023-04-25T01:44:40;9.40;99.90
40676;DHT22;26359;48.750;9.314;2023-04-25T01:47:06;9.40;99.90
40676;DHT22;26359;48.750;9.314;2023-04-25T01:49:32;9.40;99.90
40676;DHT22;26359;48.750;9.314;2023-04-25T01:51:57;9.30;99.90
40676;DHT22;26359;48.750;9.314;2023-04-25T01:54:23;9.30;99.90
40676;DHT22;26359;48.750;9.314;2023-04-25T01:56:51;9.30;99.90
40676;DHT22;26359;48.750;9.314;2023-04-25T01:59:18;9.20;99.90
40676;DHT22;26359;48.750;9.314;2023-04-25T02:01:45;9.20;99.90
40676;DHT22;26359;48.750;9.314;2023-04-25T02:04:10;9.20;99.90
40676;DHT22;26359;48.750;9.314;2023-04-25T02:06:36;9.20;99.90
40676;DHT22;26359;48.750;9.314;2023-04-25T02:09:01;9.10;99.90
40676;DHT22;26359;48.750;9.314;2023-04-25T02:11:27;9.10;99.90
40676;DHT22;26359;48.750;9.314;2023-04-25T02:13:52;9.00;99.90
40676;DHT22;26359;48.750;9.314;2023-04-25T02:16:18;8.90;99.90
40676;DHT22;26359;48.750;9.314;2023-04-25T02:18:44;8.90;99.90
40676;DHT22;26359;48.750;9.314;2023-04-25T02:21:10;8.80;99.90
40676;DHT22;26359;48.750;9.314;2023-04-25T02:23:37;8.80;99.90
40676;DHT22;26359;48.750;9.314;2023-04-25T02:26:02;8.70;99.90
40676;DHT22;26359;48.750;9.314;2023-04-25T02:28:28;8.70;99.90
40676;DHT22;26359;48.750;9.314;2023-04-25T02:30:53;8.70;99.90
40676;DHT22;26359;48.750;9.314;2023-04-25T02:33:19;8.70;99.90
40676;DHT22;26359;48.750;9.314;2023-04-25T02:35:46;8.60;99.90
40676;DHT22;26359;48.750;9.314;2023-04-25T02:38:11;8.60;99.90
40676;DHT22;26359;48.750;9.314;2023-04-25T02:40:37;8.50;99.90
40676;DHT22;26359;48.750;9.314;2023-04-25T02:43:02;8.50;99.90
40676;DHT22;26359;48.750;9.314;2023-04-25T02:45:28;8.50;99.90
40676;DHT22;26359;48.750;9.314;2023-04-25T02:47:54;8.50;99.90
40676;DHT22;26359;48.750;9.314;2023-04-25T02:50:19;8.60;99.90
40676;DHT22;26359;48.750;9.314;2023-04-25T02:52:45;8.70;99.90
40676;DHT22;26359;48.750;9.314;2023-04-25T02:55:11;8.70;99.90
40676;DHT22;26359;48.750;9.314;2023-04-25T02:57:37;8.70;99.90
40676;DHT22;26359;48.750;9.314;2023-04-25T03:00:03;8.70;99.90
40676;DHT22;26359;48.750;9.314;2023-04-25T03:02:30;8.70;99.90
40676;DHT22;26359;48.750;9.314;2023-04-25T03:04:55;8.70;99.90
40676;DHT22;26359;48.750;9.314;2023-04-25T03:07:21;8.70;99.90
40676;DHT22;26359;48.750;9.314;2023-04-25T03:09:46;8.60;99.90
40676;DHT22;26359;48.750;9.314;2023-04-25T03:12:12;8.60;99.90
40676;DHT22;26359;48.750;9.314;2023-04-25T03:14:37;8.60;99.90
40676;DHT22;26359;48.750;9.314;2023-04-25T03:17:03;8.50;99.90
40676;DHT22;26359;48.750;9.314;2023-04-25T03:19:28;8.50;99.90
40676;DHT22;26359;48.750;9.314;2023-04-25T03:21:54;8.60;99.90
40676;DHT22;26359;48.750;9.314;2023-04-25T03:24:20;8.60;99.90
40676;DHT22;26359;48.750;9.314;2023-04-25T03:26:46;8.60;99.90
40676;DHT22;26359;48.750;9.314;2023-04-25T03:29:11;8.70;99.90
40676;DHT22;26359;48.750;9.314;2023-04-25T03:31:37;8.60;99.90
40676;DHT22;26359;48.750;9.314;2023-04-25T03:34:02;8.60;99.90
40676;DHT22;26359;48.750;9.314;2023-04-25T03:36:28;8.50;99.90
40676;DHT22;26359;48.750;9.314;2023-04-25T03:38:53;8.60;99.90
40676;DHT22;26359;48.750;9.314;2023-04-25T03:41:19;8.60;99.90
40676;DHT22;26359;48.750;9.314;2023-04-25T03:43:45;8.60;99.90
40676;DHT22;26359;48.750;9.314;2023-04-25T03:46:10;8.50;99.90
40676;DHT22;26359;48.750;9.314;2023-04-25T03:48:36;8.50;99.90
40676;DHT22;26359;48.750;9.314;2023-04-25T03:51:01;8.50;99.90
40676;DHT22;26359;48.750;9.314;2023-04-25T03:53:27;8.60;99.90
40676;DHT22;26359;48.750;9.314;2023-04-25T03:55:53;8.50;99.90
40676;DHT22;26359;48.750;9.314;2023-04-25T03:58:19;8.60;99.90
40676;DHT22;26359;48.750;9.314;2023-04-25T04:00:45;8.50;99.90
40676;DHT22;26359;48.750;9.314;2023-04-25T04:03:10;8.50;99.90
40676;DHT22;26359;48.750;9.314;2023-04-25T04:05:36;8.50;99.90
40676;DHT22;26359;48.750;9.314;2023-04-25T04:08:02;8.50;99.90
40676;DHT22;26359;48.750;9.314;2023-04-25T04:10:28;8.40;99.90
40676;DHT22;26359;48.750;9.314;2023-04-25T04:12:53;8.30;99.90
40676;DHT22;26359;48.750;9.314;2023-04-25T04:15:19;8.20;99.90
40676;DHT22;26359;48.750;9.314;2023-04-25T04:17:44;8.20;99.90
40676;DHT22;26359;48.750;9.314;2023-04-25T04:20:10;8.10;99.90
40676;DHT22;26359;48.750;9.314;2023-04-25T04:22:36;8.20;99.90
40676;DHT22;26359;48.750;9.314;2023-04-25T04:25:01;8.20;99.90
40676;DHT22;26359;48.750;9.314;2023-04-25T04:27:28;8.10;99.90
40676;DHT22;26359;48.750;9.314;2023-04-25T04:29:54;8.10;99.90
40676;DHT22;26359;48.750;9.314;2023-04-25T04:32:20;8.10;99.90
40676;DHT22;26359;48.750;9.314;2023-04-25T04:34:45;8.10;99.90
40676;DHT22;26359;48.750;9.314;2023-04-25T04:37:12;8.10;99.90
40676;DHT22;26359;48.750;9.314;2023-04-25T04:39:38;8.10;99.90
40676;DHT22;26359;48.750;9.314;2023-04-25T04:42:04;8.10;99.90
40676;DHT22;26359;48.750;9.314;2023-04-25T04:44:30;8.10;99.90
40676;DHT22;26359;48.750;9.314;2023-04-25T04:46:58;8.10;99.90
40676;DHT22;26359;48.750;9.314;2023-04-25T04:49:23;8.20;99.90
40676;DHT22;26359;48.750;9.314;2023-04-25T04:51:49;8.10;99.90
40676;DHT22;26359;48.750;9.314;2023-04-25T04:54:15;8.10;99.90
40676;DHT22;26359;48.750;9.314;2023-04-25T04:56:40;8.10;99.90
40676;DHT22;26359;48.750;9.314;2023-04-25T04:59:07;8.20;99.90
40676;DHT22;26359;48.750;9.314;2023-04-25T05:01:32;8.30;99.90
40676;DHT22;26359;48.750;9.314;2023-04-25T05:04:00;8.30;99.90
40676;DHT22;26359;48.750;9.314;2023-04-25T05:06:27;8.40;99.90
40676;DHT22;26359;48.750;9.314;2023-04-25T05:08:54;8.40;99.90
40676;DHT22;26359;48.750;9.314;2023-04-25T05:11:19;8.40;99.90
40676;DHT22;26359;48.750;9.314;2023-04-25T05:13:46;8.50;99.90
40676;DHT22;26359;48.750;9.314;2023-04-25T05:16:12;8.50;99.90
40676;DHT22;26359;48.750;9.314;2023-04-25T05:18:39;8.50;99.90
40676;DHT22;26359;48.750;9.314;2023-04-25T05:21:04;8.50;99.90
40676;DHT22;26359;48.750;9.314;2023-04-25T05:23:32;8.50;99.90
40676;DHT22;26359;48.750;9.314;2023-04-25T05:25:57;8.60;99.90
40676;DHT22;26359;48.750;9.314;2023-04-25T05:28:23;8.60;99.90
40676;DHT22;26359;48.750;9.314;2023-04-25T05:30:49;8.60;99.90
40676;DHT22;26359;48.750;9.314;2023-04-25T05:33:15;8.60;99.90
40676;DHT22;26359;48.750;9.314;2023-04-25T05:35:40;8.60;99.90
40676;DHT22;26359;48.750;9.314;2023-04-25T05:38:06;8.70;99.90
40676;DHT22;26359;48.750;9.314;2023-04-25T05:40:32;8.80;99.90
40676;DHT22;26359;48.750;9.314;2023-04-25T05:42:57;9.00;99.90
40676;DHT22;26359;48.750;9.314;2023-04-25T05:45:23;9.30;99.90
40676;DHT22;26359;48.750;9.314;2023-04-25T05:47:48;9.30;99.90
40676;DHT22;26359;48.750;9.314;2023-04-25T05:50:14;9.30;99.90
40676;DHT22;26359;48.750;9.314;2023-04-25T05:52:39;9.30;99.90
40676;DHT22;26359;48.750;9.314;2023-04-25T05:55:05;9.20;99.90
40676;DHT22;26359;48.750;9.314;2023-04-25T05:57:31;9.20;99.90
40676;DHT22;26359;48.750;9.314;2023-04-25T05:59:57;9.20;99.90
40676;DHT22;26359;48.750;9.314;2023-04-25T06:02:22;9.20;99.90
40676;DHT22;26359;48.750;9.314;2023-04-25T06:04:49;9.20;99.90
40676;DHT22;26359;48.750;9.314;2023-04-25T06:07:15;9.10;99.90
40676;DHT22;26359;48.750;9.314;2023-04-25T06:09:41;9.00;99.90
40676;DHT22;26359;48.750;9.314;2023-04-25T06:12:07;8.90;99.90
40676;DHT22;26359;48.750;9.314;2023-04-25T06:14:33;8.90;99.90
40676;DHT22;26359;48.750;9.314;2023-04-25T06:16:59;8.80;99.90
40676;DHT22;26359;48.750;9.314;2023-04-25T06:19:25;8.80;99.90
40676;DHT22;26359;48.750;9.314;2023-04-25T06:21:50;8.80;99.90
40676;DHT22;26359;48.750;9.314;2023-04-25T06:24:16;8.80;99.90
40676;DHT22;26359;48.750;9.314;2023-04-25T06:26:41;8.90;99.90
40676;DHT22;26359;48.750;9.314;2023-04-25T06:29:07;8.90;99.90
40676;DHT22;26359;48.750;9.314;2023-04-25T06:31:32;9.00;99.90
40676;DHT22;26359;48.750;9.314;2023-04-25T06:33:59;9.00;99.90
40676;DHT22;26359;48.750;9.314;2023-04-25T06:36:24;8.90;99.90
40676;DHT22;26359;48.750;9.314;2023-04-25T06:38:53;9.10;99.90
40676;DHT22;26359;48.750;9.314;2023-04-25T06:41:19;9.10;99.90
40676;DHT22;26359;48.750;9.314;2023-04-25T06:43:45;9.20;99.90
40676;DHT22;26359;48.750;9.314;2023-04-25T06:46:10;9.20;99.90
40676;DHT22;26359;48.750;9.314;2023-04-25T06:48:36;9.30;99.90
40676;DHT22;26359;48.750;9.314;2023-04-25T06:51:02;9.30;99.90
40676;DHT22;26359;48.750;9.314;2023-04-25T06:53:27;9.40;99.90
40676;DHT22;26359;48.750;9.314;2023-04-25T06:55:54;9.40;99.90
40676;DHT22;26359;48.750;9.314;2023-04-25T06:58:20;9.40;99.90
40676;DHT22;26359;48.750;9.314;2023-04-25T07:00:45;9.40;99.90
40676;DHT22;26359;48.750;9.314;2023-04-25T07:03:11;9.40;99.90
40676;DHT22;26359;48.750;9.314;2023-04-25T07:05:37;9.40;99.90
40676;DHT22;26359;48.750;9.314;2023-04-25T07:08:02;9.30;99.90
40676;DHT22;26359;48.750;9.314;2023-04-25T07:10:28;9.20;99.90
40676;DHT22;26359;48.750;9.314;2023-04-25T07:12:53;9.20;99.90
40676;DHT22;26359;48.750;9.314;2023-04-25T07:15:19;9.10;99.90
40676;DHT22;26359;48.750;9.314;2023-04-25T07:17:45;9.10;99.90
40676;DHT22;26359;48.750;9.314;2023-04-25T07:20:10;9.10;99.90
40676;DHT22;26359;48.750;9.314;2023-04-25T07:22:36;9.10;99.90
40676;DHT22;26359;48.750;9.314;2023-04-25T07:25:02;9.10;99.90
40676;DHT22;26359;48.750;9.314;2023-04-25T07:27:28;9.10;99.90
40676;DHT22;26359;48.750;9.314;2023-04-25T07:29:53;9.20;99.90
40676;DHT22;26359;48.750;9.314;2023-04-25T07:32:19;9.20;99.90
40676;DHT22;26359;48.750;9.314;2023-04-25T07:34:45;9.30;99.90
40676;DHT22;26359;48.750;9.314;2023-04-25T07:37:10;9.20;99.90
40676;DHT22;26359;48.750;9.314;2023-04-25T07:39:36;9.30;99.90
40676;DHT22;26359;48.750;9.314;2023-04-25T07:42:02;9.20;99.90
40676;DHT22;26359;48.750;9.314;2023-04-25T07:44:29;9.20;99.90
40676;DHT22;26359;48.750;9.314;2023-04-25T07:46:55;9.20;99.90
40676;DHT22;26359;48.750;9.314;2023-04-25T07:49:21;9.10;99.90
40676;DHT22;26359;48.750;9.314;2023-04-25T07:51:47;9.10;99.90
40676;DHT22;26359;48.750;9.314;2023-04-25T07:54:14;9.00;99.90
40676;DHT22;26359;48.750;9.314;2023-04-25T07:56:40;8.90;99.90
40676;DHT22;26359;48.750;9.314;2023-04-25T07:59:06;8.80;99.90
40676;DHT22;26359;48.750;9.314;2023-04-25T08:01:31;8.80;99.90
40676;DHT22;26359;48.750;9.314;2023-04-25T08:03:57;8.80;99.90
40676;DHT22;26359;48.750;9.314;2023-04-25T08:06:22;8.80;99.90
40676;DHT22;26359;48.750;9.314;2023-04-25T08:08:48;8.80;99.90
40676;DHT22;26359;48.750;9.314;2023-04-25T08:11:13;8.80;99.90
40676;DHT22;26359;48.750;9.314;2023-04-25T08:13:39;8.70;99.90
40676;DHT22;26359;48.750;9.314;2023-04-25T08:16:05;8.80;99.90
40676;DHT22;26359;48.750;9.314;2023-04-25T08:18:30;8.70;99.90
40676;DHT22;26359;48.750;9.314;2023-04-25T08:20:56;8.70;99.90
40676;DHT22;26359;48.750;9.314;2023-04-25T08:23:21;8.70;99.90
40676;DHT22;26359;48.750;9.314;2023-04-25T08:25:47;8.50;99.90
40676;DHT22;26359;48.750;9.314;2023-04-25T08:28:12;8.40;99.90
40676;DHT22;26359;48.750;9.314;2023-04-25T08:30:38;8.40;99.90
40676;DHT22;26359;48.750;9.314;2023-04-25T08:33:03;8.40;99.90
40676;DHT22;26359;48.750;9.314;2023-04-25T08:35:29;8.30;99.90
40676;DHT22;26359;48.750;9.314;2023-04-25T08:37:55;8.40;99.90
40676;DHT22;26359;48.750;9.314;2023-04-25T08:40:22;8.40;99.90
40676;DHT22;26359;48.750;9.314;2023-04-25T08:42:54;8.30;99.90
40676;DHT22;26359;48.750;9.314;2023-04-25T08:45:20;8.30;99.90
40676;DHT22;26359;48.750;9.314;2023-04-25T08:47:47;8.40;99.90
40676;DHT22;26359;48.750;9.314;2023-04-25T08:50:14;8.40;99.90
40676;DHT22;26359;48.750;9.314;2023-04-25T08:52:49;8.50;99.90
40676;DHT22;26359;48.750;9.314;2023-04-25T08:55:18;8.50;99.90
40676;DHT22;26359;48.750;9.314;2023-04-25T08:57:44;8.50;99.90
40676;DHT22;26359;48.750;9.314;2023-04-25T09:00:11;8.50;99.90
40676;DHT22;26359;48.750;9.314;2023-04-25T09:02:38;8.40;99.90
40676;DHT22;26359;48.750;9.314;2023-04-25T09:05:06;8.40;99.90
40676;DHT22;26359;48.750;9.314;2023-04-25T09:07:32;8.40;99.90
40676;DHT22;26359;48.750;9.314;2023-04-25T09:09:58;8.30;99.90
40676;DHT22;26359;48.750;9.314;2023-04-25T09:12:29;8.30;99.90
40676;DHT22;26359;48.750;9.314;2023-04-25T09:15:09;8.30;99.90
40676;DHT22;26359;48.750;9.314;2023-04-25T09:17:35;8.30;99.90
40676;DHT22;26359;48.750;9.314;2023-04-25T09:20:14;8.40;99.90
40676;DHT22;26359;48.750;9.314;2023-04-25T09:22:40;8.40;99.90
40676;DHT22;26359;48.750;9.314;2023-04-25T09:25:10;8.40;99.90
40676;DHT22;26359;48.750;9.314;2023-04-25T09:27:49;8.40;99.90
40676;DHT22;26359;48.750;9.314;2023-04-25T09:30:16;8.40;99.90
40676;DHT22;26359;48.750;9.314;2023-04-25T09:32:43;8.40;99.90
40676;DHT22;26359;48.750;9.314;2023-04-25T09:35:08;8.40;99.90
40676;DHT22;26359;48.750;9.314;2023-04-25T09:37:34;8.30;99.90
40676;DHT22;26359;48.750;9.314;2023-04-25T09:40:05;8.30;99.90
40676;DHT22;26359;48.750;9.314;2023-04-25T09:42:31;8.40;99.90
40676;DHT22;26359;48.750;9.314;2023-04-25T09:44:58;8.40;99.90
40676;DHT22;26359;48.750;9.314;2023-04-25T09:47:25;8.50;99.90
40676;DHT22;26359;48.750;9.314;2023-04-25T09:49:52;8.50;99.90
40676;DHT22;26359;48.750;9.314;2023-04-25T09:52:22;8.60;99.90
40676;DHT22;26359;48.750;9.314;2023-04-25T09:54:49;8.50;99.90
40676;DHT22;26359;48.750;9.314;2023-04-25T09:57:21;8.50;99.90
40676;DHT22;26359;48.750;9.314;2023-04-25T09:59:52;8.50;99.90
40676;DHT22;26359;48.750;9.314;2023-04-25T10:02:20;8.50;99.90
40676;DHT22;26359;48.750;9.314;2023-04-25T10:04:55;8.60;99.90
40676;DHT22;26359;48.750;9.314;2023-04-25T10:07:25;8.60;99.90
40676;DHT22;26359;48.750;9.314;2023-04-25T10:10:03;8.60;99.90
40676;DHT22;26359;48.750;9.314;2023-04-25T10:12:30;8.50;99.90
40676;DHT22;26359;48.750;9.314;2023-04-25T10:14:59;8.50;99.90
40676;DHT22;26359;48.750;9.314;2023-04-25T10:17:26;8.50;99.90
40676;DHT22;26359;48.750;9.314;2023-04-25T10:19:54;8.50;99.90
40676;DHT22;26359;48.750;9.314;2023-04-25T10:22:37;8.50;99.90
40676;DHT22;26359;48.750;9.314;2023-04-25T10:25:04;8.40;99.90
40676;DHT22;26359;48.750;9.314;2023-04-25T10:27:30;8.40;99.90
40676;DHT22;26359;48.750;9.314;2023-04-25T10:30:08;8.40;99.90
40676;DHT22;26359;48.750;9.314;2023-04-25T10:32:36;8.30;99.90
40676;DHT22;26359;48.750;9.314;2023-04-25T10:35:17;8.30;99.90
40676;DHT22;26359;48.750;9.314;2023-04-25T10:40:31;8.20;99.90
40676;DHT22;26359;48.750;9.314;2023-04-25T10:43:33;8.00;99.90
40676;DHT22;26359;48.750;9.314;2023-04-25T10:46:02;7.90;99.90
40676;DHT22;26359;48.750;9.314;2023-04-25T10:48:37;7.90;99.90
40676;DHT22;26359;48.750;9.314;2023-04-25T10:51:18;7.80;99.90
40676;DHT22;26359;48.750;9.314;2023-04-25T10:53:45;7.80;99.90
40676;DHT22;26359;48.750;9.314;2023-04-25T10:56:16;7.80;99.90
40676;DHT22;26359;48.750;9.314;2023-04-25T10:58:43;7.90;99.90
40676;DHT22;26359;48.750;9.314;2023-04-25T11:01:09;7.90;99.90
40676;DHT22;26359;48.750;9.314;2023-04-25T11:03:41;7.90;99.90
40676;DHT22;26359;48.750;9.314;2023-04-25T11:06:26;8.00;99.90
40676;DHT22;26359;48.750;9.314;2023-04-25T11:08:54;7.90;99.90
40676;DHT22;26359;48.750;9.314;2023-04-25T11:11:19;8.00;99.90
40676;DHT22;26359;48.750;9.314;2023-04-25T11:13:49;8.00;99.90
40676;DHT22;26359;48.750;9.314;2023-04-25T11:16:15;8.10;99.90
40676;DHT22;26359;48.750;9.314;2023-04-25T11:18:44;8.00;99.90
40676;DHT22;26359;48.750;9.314;2023-04-25T11:21:10;8.00;99.90
40676;DHT22;26359;48.750;9.314;2023-04-25T11:23:36;8.00;99.90
40676;DHT22;26359;48.750;9.314;2023-04-25T11:26:06;7.90;99.90
40676;DHT22;26359;48.750;9.314;2023-04-25T11:28:32;7.80;99.90
40676;DHT22;26359;48.750;9.314;2023-04-25T11:30:58;7.80;99.90
40676;DHT22;26359;48.750;9.314;2023-04-25T11:33:24;7.80;99.90
40676;DHT22;26359;48.750;9.314;2023-04-25T11:35:53;7.80;99.90
40676;DHT22;26359;48.750;9.314;2023-04-25T11:38:18;7.80;99.90
40676;DHT22;26359;48.750;9.314;2023-04-25T11:40:44;7.90;99.90
40676;DHT22;26359;48.750;9.314;2023-04-25T11:43:14;7.90;99.90
40676;DHT22;26359;48.750;9.314;2023-04-25T11:45:40;8.00;99.90
40676;DHT22;26359;48.750;9.314;2023-04-25T11:48:05;8.00;99.90
40676;DHT22;26359;48.750;9.314;2023-04-25T11:50:31;8.10;99.90
40676;DHT22;26359;48.750;9.314;2023-04-25T11:52:56;8.00;99.90
40676;DHT22;26359;48.750;9.314;2023-04-25T11:55:22;8.10;99.90
40676;DHT22;26359;48.750;9.314;2023-04-25T11:57:49;8.20;99.90
40676;DHT22;26359;48.750;9.314;2023-04-25T12:00:17;8.30;99.90
40676;DHT22;26359;48.750;9.314;2023-04-25T12:02:45;8.30;99.90
40676;DHT22;26359;48.750;9.314;2023-04-25T12:05:12;8.30;99.90
40676;DHT22;26359;48.750;9.314;2023-04-25T12:07:38;8.20;99.90
40676;DHT22;26359;48.750;9.314;2023-04-25T12:10:05;8.20;99.90
40676;DHT22;26359;48.750;9.314;2023-04-25T12:12:35;8.30;99.90
40676;DHT22;26359;48.750;9.314;2023-04-25T12:17:39;8.30;99.90
40676;DHT22;26359;48.750;9.314;2023-04-25T12:20:10;8.40;99.90
40676;DHT22;26359;48.750;9.314;2023-04-25T12:22:36;8.40;99.90
40676;DHT22;26359;48.750;9.314;2023-04-25T12:25:03;8.40;99.90
40676;DHT22;26359;48.750;9.314;2023-04-25T12:27:31;8.30;99.90
40676;DHT22;26359;48.750;9.314;2023-04-25T12:29:57;8.40;99.90
40676;DHT22;26359;48.750;9.314;2023-04-25T12:32:23;8.50;99.90
40676;DHT22;26359;48.750;9.314;2023-04-25T12:34:48;8.50;99.90
40676;DHT22;26359;48.750;9.314;2023-04-25T12:37:14;8.60;99.90
40676;DHT22;26359;48.750;9.314;2023-04-25T12:39:40;8.70;99.90
40676;DHT22;26359;48.750;9.314;2023-04-25T12:42:06;8.60;99.90
40676;DHT22;26359;48.750;9.314;2023-04-25T12:44:33;8.60;99.90
40676;DHT22;26359;48.750;9.314;2023-04-25T12:46:59;8.60;99.90
40676;DHT22;26359;48.750;9.314;2023-04-25T12:49:25;8.50;99.90
40676;DHT22;26359;48.750;9.314;2023-04-25T12:51:50;8.50;99.90
40676;DHT22;26359;48.750;9.314;2023-04-25T12:54:17;8.50;99.90
40676;DHT22;26359;48.750;9.314;2023-04-25T12:56:42;8.50;99.90
40676;DHT22;26359;48.750;9.314;2023-04-25T12:59:08;8.40;99.90
40676;DHT22;26359;48.750;9.314;2023-04-25T13:01:34;8.30;99.90
40676;DHT22;26359;48.750;9.314;2023-04-25T13:04:00;8.30;99.90
40676;DHT22;26359;48.750;9.314;2023-04-25T13:06:25;8.50;99.90
40676;DHT22;26359;48.750;9.314;2023-04-25T13:08:51;8.60;99.90
40676;DHT22;26359;48.750;9.314;2023-04-25T13:11:17;8.70;99.90
40676;DHT22;26359;48.750;9.314;2023-04-25T13:13:43;8.80;99.90
40676;DHT22;26359;48.750;9.314;2023-04-25T13:16:09;8.70;99.90
40676;DHT22;26359;48.750;9.314;2023-04-25T13:18:35;8.80;99.90
40676;DHT22;26359;48.750;9.314;2023-04-25T13:21:00;8.90;99.90
40676;DHT22;26359;48.750;9.314;2023-04-25T13:23:27;8.90;99.90
40676;DHT22;26359;48.750;9.314;2023-04-25T13:25:53;9.10;99.90
40676;DHT22;26359;48.750;9.314;2023-04-25T13:28:19;9.30;99.90
40676;DHT22;26359;48.750;9.314;2023-04-25T13:30:44;9.50;99.90
40676;DHT22;26359;48.750;9.314;2023-04-25T13:33:10;9.80;99.90
40676;DHT22;26359;48.750;9.314;2023-04-25T13:35:37;10.00;99.90
40676;DHT22;26359;48.750;9.314;2023-04-25T13:38:03;10.10;99.90
40676;DHT22;26359;48.750;9.314;2023-04-25T13:40:29;10.20;99.90
40676;DHT22;26359;48.750;9.314;2023-04-25T13:42:55;10.10;99.90
40676;DHT22;26359;48.750;9.314;2023-04-25T13:45:21;10.20;99.90
40676;DHT22;26359;48.750;9.314;2023-04-25T13:47:47;10.40;99.90
40676;DHT22;26359;48.750;9.314;2023-04-25T13:50:13;10.40;99.90
40676;DHT22;26359;48.750;9.314;2023-04-25T13:52:39;10.50;99.90
40676;DHT22;26359;48.750;9.314;2023-04-25T13:55:05;10.70;99.90
40676;DHT22;26359;48.750;9.314;2023-04-25T13:57:33;10.70;99.90
40676;DHT22;26359;48.750;9.314;2023-04-25T13:59:59;10.70;99.90
40676;DHT22;26359;48.750;9.314;2023-04-25T14:02:25;10.60;99.90
40676;DHT22;26359;48.750;9.314;2023-04-25T14:04:53;10.70;99.90
40676;DHT22;26359;48.750;9.314;2023-04-25T14:07:19;10.60;99.90
40676;DHT22;26359;48.750;9.314;2023-04-25T14:09:46;10.50;99.90
40676;DHT22;26359;48.750;9.314;2023-04-25T14:12:11;10.40;99.90
40676;DHT22;26359;48.750;9.314;2023-04-25T14:14:37;10.30;99.90
40676;DHT22;26359;48.750;9.314;2023-04-25T14:17:03;10.10;99.90
40676;DHT22;26359;48.750;9.314;2023-04-25T14:19:29;10.10;99.90
40676;DHT22;26359;48.750;9.314;2023-04-25T14:21:55;10.10;99.90
40676;DHT22;26359;48.750;9.314;2023-04-25T14:24:20;10.20;99.90
40676;DHT22;26359;48.750;9.314;2023-04-25T14:26:46;10.30;99.90
40676;DHT22;26359;48.750;9.314;2023-04-25T14:29:12;10.20;99.90
40676;DHT22;26359;48.750;9.314;2023-04-25T14:31:38;10.10;99.90
40676;DHT22;26359;48.750;9.314;2023-04-25T14:34:05;10.20;99.90
40676;DHT22;26359;48.750;9.314;2023-04-25T14:36:31;10.20;99.90
40676;DHT22;26359;48.750;9.314;2023-04-25T14:38:57;10.40;99.90
40676;DHT22;26359;48.750;9.314;2023-04-25T14:41:23;10.50;99.90
40676;DHT22;26359;48.750;9.314;2023-04-25T14:43:50;10.80;99.90
40676;DHT22;26359;48.750;9.314;2023-04-25T14:46:15;10.90;99.90
40676;DHT22;26359;48.750;9.314;2023-04-25T14:48:42;11.00;99.90
40676;DHT22;26359;48.750;9.314;2023-04-25T14:51:07;11.00;99.90
40676;DHT22;26359;48.750;9.314;2023-04-25T14:53:33;11.10;99.90
40676;DHT22;26359;48.750;9.314;2023-04-25T14:55:59;11.60;99.90
40676;DHT22;26359;48.750;9.314;2023-04-25T14:58:24;12.20;99.90
40676;DHT22;26359;48.750;9.314;2023-04-25T15:00:50;12.80;99.90
40676;DHT22;26359;48.750;9.314;2023-04-25T15:03:16;12.70;99.90
40676;DHT22;26359;48.750;9.314;2023-04-25T15:05:42;12.50;99.90
40676;DHT22;26359;48.750;9.314;2023-04-25T15:08:08;12.20;99.90
40676;DHT22;26359;48.750;9.314;2023-04-25T15:10:34;11.60;99.90
40676;DHT22;26359;48.750;9.314;2023-04-25T15:13:00;11.30;99.90
40676;DHT22;26359;48.750;9.314;2023-04-25T15:15:26;11.10;99.90
40676;DHT22;26359;48.750;9.314;2023-04-25T15:17:52;11.00;99.90
40676;DHT22;26359;48.750;9.314;2023-04-25T15:20:18;11.20;99.90
40676;DHT22;26359;48.750;9.314;2023-04-25T15:22:44;11.80;99.90
40676;DHT22;26359;48.750;9.314;2023-04-25T15:25:14;12.10;99.90
40676;DHT22;26359;48.750;9.314;2023-04-25T15:27:41;12.70;99.90
40676;DHT22;26359;48.750;9.314;2023-04-25T15:30:10;12.70;99.90
40676;DHT22;26359;48.750;9.314;2023-04-25T15:32:37;12.70;99.90
40676;DHT22;26359;48.750;9.314;2023-04-25T15:35:05;12.50;99.90
40676;DHT22;26359;48.750;9.314;2023-04-25T15:37:32;12.10;99.90
40676;DHT22;26359;48.750;9.314;2023-04-25T15:42:46;11.60;99.90
40676;DHT22;26359;48.750;9.314;2023-04-25T15:45:13;11.40;99.90
40676;DHT22;26359;48.750;9.314;2023-04-25T15:47:39;11.30;99.90
40676;DHT22;26359;48.750;9.314;2023-04-25T15:50:06;11.30;99.90